createdAt,value
2019-01-31T00:00:03.632Z,19.63
2019-01-31T00:02:36.718Z,20.50
2019-01-31T00:05:18.961Z,21.30
2019-01-31T00:07:46.405Z,19.50
2019-01-31T00:10:22.837Z,20.30
2019-01-31T00:12:52.769Z,19.57
2019-01-31T00:15:22.871Z,17.27
2019-01-31T00:17:52.789Z,18.40
2019-01-31T00:20:28.642Z,20.07
2019-01-31T00:23:20.576Z,20.03
2019-01-31T00:25:53.595Z,19.40
2019-01-31T00:28:29.744Z,20.30
2019-01-31T00:31:15.020Z,20.23
2019-01-31T00:34:09.584Z,22.23
2019-01-31T00:36:39.826Z,26.07
2019-01-31T00:39:22.067Z,27.00
2019-01-31T00:42:10.450Z,25.77
2019-01-31T00:44:40.571Z,20.20
2019-01-31T00:47:10.793Z,20.23
2019-01-31T00:49:50.034Z,18.87
2019-01-31T00:52:38.231Z,19.70
2019-01-31T00:55:11.253Z,18.97
2019-01-31T00:57:50.568Z,19.87
2019-01-31T01:00:26.304Z,19.43
2019-01-31T01:03:11.594Z,20.30
2019-01-31T01:06:03.462Z,19.70
2019-01-31T01:08:30.878Z,23.03
2019-01-31T01:11:16.195Z,22.97
2019-01-31T01:13:43.616Z,24.10
2019-01-31T01:16:16.789Z,21.27
2019-01-31T01:19:17.611Z,20.93
2019-01-31T01:21:47.937Z,21.93
2019-01-31T01:24:30.315Z,20.73
2019-01-31T01:27:28.197Z,20.57
2019-01-31T01:30:04.419Z,21.20
2019-01-31T01:32:49.434Z,23.60
2019-01-31T01:35:28.724Z,21.23
2019-01-31T01:38:08.046Z,21.40
2019-01-31T01:40:35.469Z,20.77
2019-01-31T01:43:05.290Z,20.80
2019-01-31T01:45:35.504Z,22.37
2019-01-31T01:48:17.865Z,21.70
2019-01-31T01:50:50.573Z,22.10
2019-01-31T01:53:20.843Z,21.40
2019-01-31T01:55:56.750Z,22.03
2019-01-31T01:58:29.339Z,21.97
2019-01-31T02:00:56.789Z,22.03
2019-01-31T02:03:26.745Z,22.13
2019-01-31T02:05:56.950Z,21.20
2019-01-31T02:08:45.178Z,22.40
2019-01-31T02:11:12.604Z,22.60
2019-01-31T02:13:40.024Z,21.50
2019-01-31T02:16:24.960Z,23.33
2019-01-31T02:18:52.378Z,22.97
2019-01-31T02:21:50.143Z,22.40
2019-01-31T02:24:26.125Z,21.83
2019-01-31T02:27:15.033Z,21.30
2019-01-31T02:30:00.665Z,19.00
2019-01-31T02:32:30.706Z,22.17
2019-01-31T02:35:09.962Z,22.77
2019-01-31T02:37:49.009Z,24.07
2019-01-31T02:40:33.950Z,22.53
2019-01-31T02:43:04.306Z,24.97
2019-01-31T02:46:02.133Z,24.70
2019-01-31T02:48:32.354Z,24.90
2019-01-31T02:50:59.761Z,25.87
2019-01-31T02:53:27.203Z,26.60
2019-01-31T02:56:09.437Z,27.60
2019-01-31T02:58:42.515Z,26.50
2019-01-31T03:01:24.770Z,27.37
2019-01-31T03:03:52.173Z,28.00
2019-01-31T03:06:37.999Z,26.50
2019-01-31T03:09:26.474Z,27.53
2019-01-31T03:11:53.933Z,26.93
2019-01-31T03:14:21.324Z,28.90
2019-01-31T03:17:00.497Z,25.97
2019-01-31T03:19:30.603Z,27.17
2019-01-31T03:22:00.472Z,27.97
2019-01-31T03:24:36.426Z,27.40
2019-01-31T03:27:25.088Z,27.27
2019-01-31T03:29:55.273Z,28.93
2019-01-31T03:32:34.394Z,27.13
2019-01-31T03:35:32.281Z,25.70
2019-01-31T03:38:05.263Z,23.90
2019-01-31T03:40:38.698Z,24.33
2019-01-31T03:43:06.112Z,23.57
2019-01-31T03:45:54.260Z,24.53
2019-01-31T03:48:30.143Z,23.70
2019-01-31T03:51:00.530Z,22.50
2019-01-31T03:53:42.844Z,26.47
2019-01-31T03:56:19.030Z,33.50
2019-01-31T03:58:46.442Z,26.27
2019-01-31T04:01:31.887Z,24.30
2019-01-31T04:04:07.848Z,27.27
2019-01-31T04:06:35.290Z,24.77
2019-01-31T04:09:02.725Z,29.10
2019-01-31T04:11:30.148Z,26.70
2019-01-31T04:13:57.569Z,26.03
2019-01-31T04:16:24.999Z,25.30
2019-01-31T04:18:52.425Z,24.70
2019-01-31T04:21:19.881Z,25.33
2019-01-31T04:23:47.297Z,25.40
2019-01-31T04:26:14.698Z,24.23
2019-01-31T04:28:42.153Z,23.60
2019-01-31T04:31:09.551Z,23.10
2019-01-31T04:33:36.996Z,25.50
2019-01-31T04:36:04.423Z,25.53
2019-01-31T04:38:31.856Z,71.50
2019-01-31T04:40:59.298Z,29.43
2019-01-31T04:43:26.726Z,26.27
2019-01-31T04:45:54.165Z,24.23
2019-01-31T04:48:21.575Z,23.70
2019-01-31T04:50:49.025Z,24.63
2019-01-31T04:53:16.442Z,24.97
2019-01-31T04:55:43.875Z,25.10
2019-01-31T04:58:11.308Z,25.33
2019-01-31T05:00:38.757Z,23.23
2019-01-31T05:03:06.174Z,24.67
2019-01-31T05:05:33.607Z,28.80
2019-01-31T05:08:01.041Z,26.97
2019-01-31T05:10:28.447Z,23.43
2019-01-31T05:12:55.891Z,26.57
2019-01-31T05:15:23.327Z,24.73
2019-01-31T05:17:50.769Z,28.63
2019-01-31T05:20:18.172Z,26.10
2019-01-31T05:22:45.605Z,24.60
2019-01-31T05:25:13.087Z,25.37
2019-01-31T05:27:40.521Z,25.13
2019-01-31T05:30:07.977Z,23.37
2019-01-31T05:32:35.420Z,25.83
2019-01-31T05:35:02.841Z,21.30
2019-01-31T05:37:30.279Z,22.57
2019-01-31T05:39:57.683Z,22.43
2019-01-31T05:42:25.093Z,23.90
2019-01-31T05:44:52.528Z,23.17
2019-01-31T05:47:19.974Z,21.23
2019-01-31T05:49:47.422Z,23.40
2019-01-31T05:52:14.829Z,23.47
2019-01-31T05:54:42.281Z,22.33
2019-01-31T05:57:09.668Z,22.53
2019-01-31T05:59:37.124Z,22.80
2019-01-31T06:02:04.530Z,21.47
2019-01-31T06:04:31.960Z,23.27
2019-01-31T06:07:10.673Z,21.40
2019-01-31T06:09:26.809Z,20.77
2019-01-31T06:11:54.208Z,23.13
2019-01-31T06:14:21.636Z,20.70
2019-01-31T06:16:49.065Z,20.50
2019-01-31T06:19:16.547Z,17.70
2019-01-31T06:21:44.008Z,19.47
2019-01-31T06:24:11.422Z,17.73
2019-01-31T06:26:38.854Z,18.73
2019-01-31T06:29:06.339Z,19.60
2019-01-31T06:31:33.791Z,17.20
2019-01-31T06:34:01.205Z,16.03
2019-01-31T06:36:28.665Z,17.07
2019-01-31T06:38:56.074Z,14.80
2019-01-31T06:41:23.524Z,15.70
2019-01-31T06:43:50.938Z,15.63
2019-01-31T06:46:18.368Z,13.90
2019-01-31T06:48:45.776Z,15.87
2019-01-31T06:51:13.242Z,14.87
2019-01-31T06:53:40.653Z,14.80
2019-01-31T06:56:08.053Z,13.07
2019-01-31T06:58:35.498Z,13.90
2019-01-31T07:01:02.946Z,14.67
2019-01-31T07:03:30.378Z,14.57
2019-01-31T07:05:57.806Z,14.37
2019-01-31T07:08:25.210Z,16.10
2019-01-31T07:10:52.634Z,16.70
2019-01-31T07:13:20.043Z,14.70
2019-01-31T07:15:47.502Z,14.97
2019-01-31T07:18:14.914Z,14.67
2019-01-31T07:20:42.344Z,13.87
2019-01-31T07:23:09.808Z,14.50
2019-01-31T07:25:37.238Z,13.17
2019-01-31T07:28:04.743Z,13.37
2019-01-31T07:30:32.167Z,12.33
2019-01-31T07:32:59.559Z,13.60
2019-01-31T07:35:26.997Z,13.20
2019-01-31T07:37:54.426Z,13.07
2019-01-31T07:40:21.859Z,12.17
2019-01-31T07:42:49.278Z,10.93
2019-01-31T07:45:16.717Z,12.27
2019-01-31T07:47:44.155Z,13.43
2019-01-31T07:50:11.572Z,13.00
2019-01-31T07:52:39.006Z,13.47
2019-01-31T07:55:06.434Z,13.33
2019-01-31T07:57:33.836Z,13.20
2019-01-31T08:00:01.283Z,14.80
2019-01-31T08:02:28.678Z,16.23
2019-01-31T08:04:56.134Z,14.90
2019-01-31T08:07:23.567Z,15.00
2019-01-31T08:09:50.986Z,13.87
2019-01-31T08:12:18.442Z,15.47
2019-01-31T08:14:45.862Z,14.63
2019-01-31T08:17:13.296Z,16.43
2019-01-31T08:19:40.710Z,15.57
2019-01-31T08:22:08.136Z,17.10
2019-01-31T08:24:35.536Z,14.10
2019-01-31T08:27:02.981Z,13.80
2019-01-31T08:29:30.419Z,14.67
2019-01-31T08:31:57.845Z,16.03
2019-01-31T08:34:25.268Z,14.03
2019-01-31T08:36:52.720Z,15.33
2019-01-31T08:39:20.188Z,15.17
2019-01-31T08:41:47.727Z,17.13
2019-01-31T08:47:50.290Z,15.00
2019-01-31T08:53:52.737Z,15.43
2019-01-31T08:56:20.174Z,15.50
2019-01-31T09:13:00.158Z,18.40
2019-01-31T09:18:00.687Z,15.40
2019-01-31T09:24:18.273Z,16.33
2019-01-31T09:37:28.360Z,14.53
2019-01-31T09:44:22.304Z,44.93
2019-01-31T09:47:17.317Z,17.73
2019-01-31T09:59:39.801Z,14.77
2019-01-31T10:05:45.106Z,17.60
2019-01-31T10:11:43.307Z,18.50
2019-01-31T10:17:54.858Z,19.47
2019-01-31T10:32:01.653Z,17.20
2019-01-31T10:38:06.314Z,20.20
2019-01-31T10:51:20.181Z,19.27
2019-01-31T10:59:53.222Z,22.60
2019-01-31T11:06:05.210Z,20.97
2019-01-31T11:08:41.191Z,22.10
2019-01-31T11:11:08.610Z,19.70
2019-01-31T11:13:41.949Z,19.20
2019-01-31T11:16:27.864Z,18.83
2019-01-31T11:19:16.150Z,19.73
2019-01-31T11:22:02.192Z,20.67
2019-01-31T11:24:56.694Z,19.77
2019-01-31T11:27:42.334Z,23.37
2019-01-31T11:30:15.527Z,20.47
2019-01-31T11:33:03.716Z,21.63
2019-01-31T11:35:55.424Z,21.43
2019-01-31T11:38:34.389Z,20.60
2019-01-31T11:41:10.137Z,24.90
2019-01-31T11:44:14.788Z,20.40
2019-01-31T11:46:42.199Z,19.60
2019-01-31T11:49:09.609Z,20.17
2019-01-31T11:51:54.831Z,20.73
2019-01-31T11:54:30.572Z,22.67
2019-01-31T11:57:13.034Z,21.50
2019-01-31T11:59:40.538Z,21.50
2019-01-31T12:02:07.865Z,19.93
2019-01-31T12:04:35.295Z,21.33
2019-01-31T12:07:02.716Z,21.70
2019-01-31T12:09:30.126Z,20.37
2019-01-31T12:11:57.558Z,20.53
2019-01-31T12:14:24.965Z,22.43
2019-01-31T12:16:52.399Z,20.57
2019-01-31T12:19:19.807Z,20.37
2019-01-31T12:21:47.252Z,19.60
2019-01-31T12:24:16.640Z,18.87
2019-01-31T12:26:42.109Z,19.80
2019-01-31T12:29:09.516Z,18.97
2019-01-31T12:31:36.920Z,18.23
2019-01-31T12:34:04.354Z,18.37
2019-01-31T12:36:31.764Z,18.03
2019-01-31T12:38:59.235Z,17.73
2019-01-31T12:41:26.632Z,18.93
2019-01-31T12:43:54.098Z,19.33
2019-01-31T12:46:21.538Z,20.00
2019-01-31T12:48:49.012Z,20.20
2019-01-31T12:51:16.425Z,20.07
2019-01-31T12:53:43.855Z,19.60
2019-01-31T12:56:11.263Z,20.43
2019-01-31T12:58:38.685Z,18.93
2019-01-31T13:01:06.110Z,19.27
2019-01-31T13:03:33.544Z,19.47
2019-01-31T13:06:00.954Z,19.10
2019-01-31T13:08:28.370Z,19.23
2019-01-31T13:10:55.770Z,19.13
2019-01-31T13:24:20.100Z,21.70
2019-01-31T13:26:47.521Z,21.43
2019-01-31T13:32:50.484Z,20.47
2019-01-31T13:38:52.684Z,20.93
2019-01-31T13:45:08.066Z,19.80
2019-01-31T13:51:22.830Z,19.37
2019-01-31T14:03:21.006Z,19.40
2019-01-31T14:05:48.437Z,19.47
2019-01-31T14:12:03.044Z,21.43
2019-01-31T14:14:30.467Z,22.50
2019-01-31T14:17:59.923Z,20.20
2019-01-31T14:20:27.354Z,21.37
2019-01-31T14:33:52.413Z,21.43
2019-01-31T14:39:54.619Z,20.30
2019-01-31T14:52:47.922Z,20.93
2019-01-31T14:55:15.322Z,21.40
2019-01-31T14:57:42.766Z,20.43
2019-01-31T15:00:19.002Z,19.73
2019-01-31T15:14:38.105Z,19.00
2019-01-31T15:20:39.869Z,15.60
2019-01-31T15:26:48.420Z,14.03
2019-01-31T15:32:44.574Z,13.67
2019-01-31T15:35:11.976Z,12.00
2019-01-31T15:37:39.386Z,13.00
2019-01-31T15:40:15.509Z,13.33
2019-01-31T15:42:42.973Z,13.60
2019-01-31T15:45:10.399Z,15.07
2019-01-31T15:47:37.829Z,16.43
2019-01-31T15:50:05.230Z,14.33
2019-01-31T15:52:32.630Z,13.20
2019-01-31T15:55:00.096Z,12.20
2019-01-31T15:57:27.478Z,12.97
2019-01-31T15:59:54.913Z,13.83
2019-01-31T16:02:22.314Z,13.47
2019-01-31T16:04:49.703Z,13.00
2019-01-31T16:07:17.246Z,12.33
2019-01-31T16:09:44.590Z,13.57
2019-01-31T16:12:12.040Z,13.50
2019-01-31T16:14:39.429Z,15.67
2019-01-31T16:17:06.875Z,14.40
2019-01-31T16:19:34.270Z,13.77
2019-01-31T16:22:01.676Z,13.87
2019-01-31T16:24:29.105Z,13.80
2019-01-31T16:26:56.512Z,13.20
2019-01-31T16:29:23.948Z,13.03
2019-01-31T16:31:51.363Z,12.63
2019-01-31T16:34:18.802Z,12.70
2019-01-31T16:36:46.209Z,11.73
2019-01-31T16:39:13.648Z,12.03
2019-01-31T16:41:41.067Z,11.13
2019-01-31T16:44:08.478Z,10.17
2019-01-31T16:46:36.477Z,10.90
2019-01-31T16:49:03.351Z,10.87
2019-01-31T16:51:30.769Z,11.13
2019-01-31T16:53:58.229Z,10.97
2019-01-31T16:56:25.625Z,10.67
2019-01-31T16:58:53.025Z,11.20
2019-01-31T17:01:20.451Z,9.77
2019-01-31T17:03:47.845Z,9.63
2019-01-31T17:06:15.359Z,9.47
2019-01-31T17:08:42.761Z,8.93
2019-01-31T17:11:10.150Z,8.80
2019-01-31T17:13:37.577Z,9.07
2019-01-31T17:16:04.978Z,8.90
2019-01-31T17:18:32.403Z,9.00
2019-01-31T17:20:59.823Z,8.67
2019-01-31T17:23:27.233Z,8.80
2019-01-31T17:25:54.691Z,8.67
2019-01-31T17:28:22.096Z,9.97
2019-01-31T17:30:49.494Z,9.43
2019-01-31T17:33:16.925Z,8.77
2019-01-31T17:35:44.365Z,8.40
2019-01-31T17:38:11.849Z,9.17
2019-01-31T17:40:39.256Z,9.60
2019-01-31T17:43:06.649Z,8.70
2019-01-31T17:45:34.116Z,9.90
2019-01-31T17:48:01.500Z,9.60
2019-01-31T17:50:28.960Z,9.47
2019-01-31T17:52:56.384Z,9.40
2019-01-31T17:55:23.791Z,10.10
2019-01-31T17:57:51.211Z,9.60
2019-01-31T18:00:18.637Z,9.43
2019-01-31T18:02:46.065Z,9.87
2019-01-31T18:05:13.464Z,8.97
2019-01-31T18:07:40.886Z,9.67
2019-01-31T18:10:11.130Z,9.60
2019-01-31T18:12:38.400Z,9.53
2019-01-31T18:15:05.889Z,9.83
2019-01-31T18:17:33.296Z,10.17
2019-01-31T18:20:00.711Z,9.63
2019-01-31T18:22:28.147Z,10.47
2019-01-31T18:24:55.549Z,10.47
2019-01-31T18:27:22.957Z,10.37
2019-01-31T18:29:50.389Z,10.73
2019-01-31T18:32:17.794Z,11.67
2019-01-31T18:34:45.249Z,11.73
2019-01-31T18:37:12.657Z,11.47
2019-01-31T18:39:40.096Z,10.17
2019-01-31T18:42:07.532Z,10.73
2019-01-31T18:44:34.961Z,10.70
2019-01-31T18:47:02.422Z,10.40
2019-01-31T18:49:29.849Z,11.17
2019-01-31T18:51:57.295Z,11.40
2019-01-31T18:54:24.774Z,11.03
2019-01-31T18:56:52.159Z,10.63
2019-01-31T18:59:19.671Z,11.30
2019-01-31T19:01:47.167Z,10.67
2019-01-31T19:04:14.573Z,11.53
2019-01-31T19:06:41.995Z,10.70
2019-01-31T19:09:09.447Z,10.87
2019-01-31T19:11:36.932Z,10.93
2019-01-31T19:14:04.343Z,11.23
2019-01-31T19:16:31.801Z,11.47
2019-01-31T19:18:59.325Z,9.80
2019-01-31T19:21:26.732Z,10.87
2019-01-31T19:23:54.142Z,10.00
2019-01-31T19:26:21.599Z,10.03
2019-01-31T19:28:49.158Z,9.47
2019-01-31T19:31:16.591Z,10.23
2019-01-31T19:33:44.032Z,10.17
2019-01-31T19:36:11.453Z,9.90
2019-01-31T19:38:38.857Z,10.17
2019-01-31T19:41:06.292Z,10.00
2019-01-31T19:43:33.769Z,10.37
2019-01-31T19:46:01.167Z,10.10
2019-01-31T19:48:28.608Z,10.93
2019-01-31T19:50:56.056Z,10.03
2019-01-31T19:53:23.473Z,10.77
2019-01-31T19:55:50.944Z,10.30
2019-01-31T19:58:18.377Z,10.67
2019-01-31T20:00:45.813Z,12.00
2019-01-31T20:03:13.225Z,11.47
2019-01-31T20:05:40.669Z,12.77
2019-01-31T20:08:08.102Z,12.50
2019-01-31T20:10:35.505Z,12.60
2019-01-31T20:13:02.985Z,13.50
2019-01-31T20:15:30.413Z,13.70
2019-01-31T20:17:57.844Z,14.70
2019-01-31T20:20:25.260Z,15.63
2019-01-31T20:22:52.674Z,16.37
2019-01-31T20:25:20.082Z,16.27
2019-01-31T20:27:47.507Z,15.83
2019-01-31T20:30:14.930Z,16.93
2019-01-31T20:32:42.354Z,16.83
2019-01-31T20:35:09.774Z,17.60
2019-01-31T20:37:37.201Z,17.20
2019-01-31T20:40:04.880Z,17.87
2019-01-31T20:42:32.282Z,18.63
2019-01-31T20:45:00.891Z,18.47
2019-01-31T20:47:28.254Z,17.53
2019-01-31T20:49:55.656Z,19.23
2019-01-31T20:52:23.119Z,18.27
2019-01-31T20:54:50.545Z,19.57
2019-01-31T20:57:17.968Z,19.47
2019-01-31T20:59:45.394Z,18.00
2019-01-31T21:02:12.841Z,17.03
2019-01-31T21:04:40.240Z,18.83
2019-01-31T21:07:07.681Z,18.80
2019-01-31T21:09:35.097Z,17.33
2019-01-31T21:12:02.529Z,19.17
2019-01-31T21:14:29.937Z,17.10
2019-01-31T21:16:57.376Z,17.10
2019-01-31T21:19:24.809Z,16.97
2019-01-31T21:21:52.265Z,16.80
2019-01-31T21:24:19.673Z,17.50
2019-01-31T21:26:47.164Z,16.73
2019-01-31T21:29:14.571Z,16.10
2019-01-31T21:31:41.967Z,16.80
2019-01-31T21:34:09.443Z,16.03
2019-01-31T21:36:36.941Z,14.10
2019-01-31T21:39:04.372Z,14.80
2019-01-31T21:41:31.783Z,14.03
2019-01-31T21:43:59.210Z,15.43
2019-01-31T21:46:26.700Z,13.73
2019-01-31T21:48:54.111Z,13.30
2019-01-31T21:51:21.562Z,13.73
2019-01-31T21:53:49.010Z,13.27
2019-01-31T21:56:16.419Z,12.93
2019-01-31T21:58:43.847Z,14.13
2019-01-31T22:01:11.310Z,13.20
2019-01-31T22:03:38.767Z,12.73
2019-01-31T22:06:06.169Z,12.70
2019-01-31T22:08:33.577Z,13.33
2019-01-31T22:11:00.998Z,13.73
2019-01-31T22:13:28.406Z,14.13
2019-01-31T22:15:55.872Z,13.27
2019-01-31T22:18:23.371Z,12.90
2019-01-31T22:20:50.800Z,12.40
2019-01-31T22:23:18.293Z,13.27
2019-01-31T22:25:45.682Z,13.17
2019-01-31T22:28:13.154Z,12.43
2019-01-31T22:30:40.585Z,13.03
2019-01-31T22:33:07.980Z,13.13
2019-01-31T22:35:35.399Z,13.80
2019-01-31T22:38:02.840Z,13.00
2019-01-31T22:40:30.237Z,12.27
2019-01-31T22:42:57.674Z,12.73
2019-01-31T22:45:25.078Z,12.97
2019-01-31T22:47:52.490Z,12.53
2019-01-31T22:50:22.637Z,12.97
2019-01-31T22:52:50.085Z,12.30
2019-01-31T22:55:17.505Z,12.83
2019-01-31T22:57:44.914Z,13.03
2019-01-31T23:00:24.345Z,13.00
2019-01-31T23:02:51.796Z,12.70
2019-01-31T23:05:19.200Z,12.23
2019-01-31T23:07:46.627Z,11.90
2019-01-31T23:10:14.060Z,11.87
2019-01-31T23:12:41.487Z,11.80
2019-01-31T23:15:08.939Z,11.43
2019-01-31T23:17:37.455Z,13.47
2019-01-31T23:20:03.740Z,11.63
2019-01-31T23:22:31.161Z,13.27
2019-01-31T23:24:58.558Z,12.87
2019-01-31T23:27:25.965Z,13.53
2019-01-31T23:29:53.410Z,13.67
2019-01-31T23:32:20.808Z,14.00
2019-01-31T23:34:48.265Z,13.63
2019-01-31T23:37:15.747Z,15.30
2019-01-31T23:39:43.165Z,15.00
2019-01-31T23:42:10.570Z,12.93
2019-01-31T23:44:38.133Z,13.83
2019-01-31T23:47:05.529Z,14.47
2019-01-31T23:49:32.940Z,14.40
2019-01-31T23:52:00.355Z,15.73
2019-01-31T23:54:27.757Z,16.10
2019-01-31T23:56:55.181Z,16.97
2019-01-31T23:59:22.601Z,17.50
